CYAS

Kangirsuk Supplementary Aviation Weather Reporting  Airport

Kangirsuk, Canada

CYAS 241600Z 29003KT 240V360 15SM FEW004 FEW040 M16/M18 A2934 RMK SF1SC1 SLP952

Observed Flight Rules
Nov-24 @ 16:00 UTC (46 minutes ago)
 
Visual Flight Rules
Wind Visibility Clouds
290° at 3 knots 15 miles
  • Few at 400' AGL
  • Few at 4,000' AGL
Temperatures Readings
Current -16°C / 3°F
Dewpoint -18°C / -0°F
Humidity 85%
Altimeter 29.34" Hg
Pressure 995.2 hPa
Elevation 117
Observed Flight Rules
Nov-24 @ 16:00 UTC
(46 minutes ago)
 
VFR
Wind Visibility
290° at 3 knots 15 miles
Clouds
  • Few at 400' AGL
  • Few at 4,000' AGL
Temperature Dewpoint
-16°C / 3°F -18°C / -0°F
Humidity Altimeter Pressure
85% 29.34" Hg 995.2 hPa